createdAt,value
2023-02-26T00:00:25.667Z,-1.11
2023-02-26T00:05:25.625Z,-1.15
2023-02-26T00:10:25.566Z,-1.04
2023-02-26T00:15:25.468Z,-0.86
2023-02-26T00:20:25.445Z,-0.80
2023-02-26T00:25:25.377Z,-0.74
2023-02-26T00:30:25.330Z,-0.65
2023-02-26T00:35:25.243Z,-0.64
2023-02-26T00:40:25.174Z,-0.61
2023-02-26T00:45:25.098Z,-0.49
2023-02-26T00:50:25.091Z,-0.53
2023-02-26T00:55:24.979Z,-0.62
2023-02-26T01:00:24.921Z,-0.67
2023-02-26T01:05:43.654Z,-0.71
2023-02-26T01:10:36.086Z,-0.65
2023-02-26T01:15:36.155Z,-0.68
2023-02-26T01:20:35.929Z,-0.83
2023-02-26T01:25:35.890Z,-0.82
2023-02-26T01:30:35.810Z,-0.72
2023-02-26T01:35:35.736Z,-0.70
2023-02-26T01:40:35.671Z,-0.70
2023-02-26T01:45:35.619Z,-0.75
2023-02-26T01:50:35.562Z,-0.64
2023-02-26T01:55:35.507Z,-0.59
2023-02-26T02:00:35.467Z,-0.57
2023-02-26T02:05:35.394Z,-0.49
2023-02-26T02:10:35.418Z,-0.49
2023-02-26T02:15:35.249Z,-0.59
2023-02-26T02:20:35.152Z,-0.74
2023-02-26T02:25:35.116Z,-0.75
2023-02-26T02:30:35.026Z,-0.74
2023-02-26T02:35:34.984Z,-0.74
2023-02-26T02:40:34.907Z,-0.80
2023-02-26T02:45:34.864Z,-0.89
2023-02-26T02:50:34.776Z,-0.93
2023-02-26T02:55:34.764Z,-0.93
2023-02-26T03:00:34.656Z,-0.94
2023-02-26T03:05:34.607Z,-0.91
2023-02-26T03:10:34.549Z,-0.90
2023-02-26T03:15:34.463Z,-0.91
2023-02-26T03:20:34.385Z,-0.96
2023-02-26T03:25:34.341Z,-1.01
2023-02-26T03:30:34.292Z,-1.01
2023-02-26T03:35:34.246Z,-1.07
2023-02-26T03:40:34.162Z,-1.20
2023-02-26T03:45:34.083Z,-1.15
2023-02-26T03:50:34.023Z,-1.22
2023-02-26T03:55:33.964Z,-1.30
2023-02-26T04:00:54.865Z,-1.38
2023-02-26T04:05:33.826Z,-1.41
2023-02-26T04:10:33.772Z,-1.46
2023-02-26T04:15:33.766Z,-1.46
2023-02-26T04:20:33.691Z,-1.47
2023-02-26T04:25:33.593Z,-1.44
2023-02-26T04:30:33.542Z,-1.41
2023-02-26T04:35:33.421Z,-1.41
2023-02-26T04:40:33.391Z,-1.40
2023-02-26T04:45:33.316Z,-1.35
2023-02-26T04:50:33.276Z,-1.32
2023-02-26T04:55:33.217Z,-1.33
2023-02-26T05:00:33.145Z,-1.50
2023-02-26T05:05:33.064Z,-1.56
2023-02-26T05:10:33.037Z,-1.64
2023-02-26T05:15:32.939Z,-1.61
2023-02-26T05:20:32.904Z,-1.51
2023-02-26T05:25:32.829Z,-1.58
2023-02-26T05:30:32.835Z,-1.58
2023-02-26T05:35:32.671Z,-1.61
2023-02-26T05:40:32.644Z,-1.65
2023-02-26T05:45:32.553Z,-1.72
2023-02-26T05:50:32.518Z,-1.77
2023-02-26T05:55:32.442Z,-1.87
2023-02-26T06:00:32.397Z,-1.92
2023-02-26T06:05:32.308Z,-1.92
2023-02-26T06:10:32.254Z,-1.92
2023-02-26T06:15:32.187Z,-1.87
2023-02-26T06:20:32.129Z,-1.86
2023-02-26T06:25:32.066Z,-1.86
2023-02-26T06:30:32.098Z,-1.86
2023-02-26T06:35:31.927Z,-1.77
2023-02-26T06:40:31.893Z,-1.71
2023-02-26T06:45:31.924Z,-1.76
2023-02-26T06:50:31.756Z,-1.71
2023-02-26T06:55:31.679Z,-1.68
2023-02-26T07:00:46.044Z,-1.66
2023-02-26T07:05:38.419Z,-1.59
2023-02-26T07:10:38.334Z,-1.47
2023-02-26T07:15:38.334Z,-1.23
2023-02-26T07:20:38.208Z,-0.85
2023-02-26T07:25:38.155Z,0.39
2023-02-26T07:30:38.140Z,0.98
2023-02-26T07:35:38.012Z,1.01
2023-02-26T07:40:37.943Z,1.99
2023-02-26T07:45:37.897Z,2.64
2023-02-26T07:50:37.830Z,3.36
2023-02-26T07:55:37.761Z,4.19
2023-02-26T08:00:37.661Z,3.84
2023-02-26T08:05:37.943Z,3.44
2023-02-26T08:10:37.551Z,4.90
2023-02-26T08:15:37.551Z,6.07
2023-02-26T08:20:37.423Z,7.17
2023-02-26T08:25:37.339Z,7.38
2023-02-26T08:30:37.307Z,7.90
2023-02-26T08:35:37.219Z,8.48
2023-02-26T08:40:37.148Z,8.64
2023-02-26T08:45:37.112Z,8.82
2023-02-26T08:50:37.013Z,8.49
2023-02-26T08:55:36.957Z,7.76
2023-02-26T09:00:36.899Z,9.03
2023-02-26T09:05:36.796Z,8.33
2023-02-26T09:10:36.826Z,9.23
2023-02-26T09:15:36.705Z,10.54
2023-02-26T09:20:36.612Z,10.35
2023-02-26T09:25:36.658Z,7.50
2023-02-26T09:30:36.497Z,7.36
2023-02-26T09:35:36.460Z,5.99
2023-02-26T09:40:36.371Z,4.44
2023-02-26T09:45:36.320Z,8.18
2023-02-26T09:50:36.210Z,9.23
2023-02-26T09:55:36.198Z,9.44
2023-02-26T10:00:36.120Z,11.05
2023-02-26T10:05:36.054Z,7.18
2023-02-26T10:10:35.957Z,6.49
2023-02-26T10:15:35.938Z,5.47
2023-02-26T10:20:35.822Z,5.02
2023-02-26T10:25:35.805Z,4.63
2023-02-26T10:30:35.749Z,4.67
2023-02-26T10:35:35.646Z,4.96
2023-02-26T10:40:35.604Z,4.49
2023-02-26T10:45:37.374Z,4.28
2023-02-26T10:50:37.293Z,4.17
2023-02-26T10:55:37.942Z,4.40
2023-02-26T11:00:35.336Z,3.99
2023-02-26T11:05:35.246Z,3.81
2023-02-26T11:10:36.141Z,3.94
2023-02-26T11:15:35.231Z,3.88
2023-02-26T11:20:35.054Z,6.74
2023-02-26T11:25:36.078Z,7.31
2023-02-26T11:30:34.918Z,5.43
2023-02-26T11:35:34.869Z,4.94
2023-02-26T11:40:34.783Z,4.24
2023-02-26T11:45:34.748Z,3.95
2023-02-26T11:50:34.779Z,4.10
2023-02-26T11:55:34.622Z,4.10
2023-02-26T12:00:34.528Z,4.17
2023-02-26T12:05:34.496Z,4.30
2023-02-26T12:10:34.368Z,4.56
2023-02-26T12:15:34.352Z,4.48
2023-02-26T12:20:35.232Z,4.38
2023-02-26T12:25:34.339Z,4.41
2023-02-26T12:30:34.218Z,4.16
2023-02-26T12:35:34.070Z,4.28
2023-02-26T12:40:34.005Z,4.49
2023-02-26T12:45:33.975Z,4.67
2023-02-26T12:50:33.900Z,4.97
2023-02-26T12:55:33.821Z,4.71
2023-02-26T13:00:33.753Z,5.07
2023-02-26T13:05:33.694Z,5.21
2023-02-26T13:10:33.622Z,5.26
2023-02-26T13:15:33.618Z,4.97
2023-02-26T13:20:33.475Z,5.26
2023-02-26T13:25:33.431Z,5.17
2023-02-26T13:30:33.396Z,4.96
2023-02-26T13:35:33.327Z,5.04
2023-02-26T13:40:33.227Z,5.07
2023-02-26T13:45:33.147Z,5.12
2023-02-26T13:50:33.073Z,4.84
2023-02-26T13:55:33.032Z,4.60
2023-02-26T14:00:32.943Z,4.50
2023-02-26T14:05:32.898Z,5.76
2023-02-26T14:10:32.819Z,6.75
2023-02-26T14:15:32.769Z,6.97
2023-02-26T14:20:32.711Z,5.61
2023-02-26T14:25:32.617Z,4.96
2023-02-26T14:30:32.615Z,5.17
2023-02-26T14:35:32.512Z,5.26
2023-02-26T14:40:32.413Z,5.35
2023-02-26T14:45:32.397Z,5.23
2023-02-26T14:50:32.269Z,4.55
2023-02-26T14:55:32.260Z,4.41
2023-02-26T15:00:32.147Z,4.38
2023-02-26T15:05:32.121Z,4.56
2023-02-26T15:10:32.010Z,4.48
2023-02-26T15:15:31.993Z,4.44
2023-02-26T15:20:31.904Z,4.37
2023-02-26T15:25:31.864Z,4.34
2023-02-26T15:30:31.753Z,4.32
2023-02-26T15:35:31.713Z,4.13
2023-02-26T15:40:31.624Z,4.17
2023-02-26T15:45:31.587Z,4.14
2023-02-26T15:50:31.512Z,4.19
2023-02-26T15:55:31.453Z,4.16
2023-02-26T16:00:31.380Z,4.10
2023-02-26T16:05:31.312Z,3.70
2023-02-26T16:10:31.275Z,3.44
2023-02-26T16:15:31.193Z,3.22
2023-02-26T16:20:31.138Z,3.13
2023-02-26T16:25:31.063Z,3.11
2023-02-26T16:30:30.978Z,3.07
2023-02-26T16:35:30.933Z,3.07
2023-02-26T16:40:30.840Z,3.07
2023-02-26T16:45:30.795Z,2.86
2023-02-26T16:50:30.758Z,2.79
2023-02-26T16:55:30.974Z,2.64
2023-02-26T17:00:30.616Z,2.47
2023-02-26T17:05:30.589Z,2.36
2023-02-26T17:10:30.523Z,2.13
2023-02-26T17:15:30.427Z,2.02
2023-02-26T17:20:30.337Z,1.91
2023-02-26T17:25:30.937Z,1.80
2023-02-26T17:30:30.268Z,1.78
2023-02-26T17:35:30.199Z,1.74
2023-02-26T17:40:30.154Z,1.59
2023-02-26T17:45:30.105Z,1.37
2023-02-26T17:50:29.906Z,1.31
2023-02-26T17:55:29.891Z,1.24
2023-02-26T18:00:29.833Z,1.12
2023-02-26T18:05:29.739Z,0.91
2023-02-26T18:10:29.694Z,0.65
2023-02-26T18:15:29.641Z,0.41
2023-02-26T18:20:29.902Z,0.32
2023-02-26T18:25:29.513Z,0.34
2023-02-26T18:30:29.562Z,0.37
2023-02-26T18:35:29.399Z,0.39
2023-02-26T18:40:29.455Z,0.31
2023-02-26T18:45:29.278Z,0.16
2023-02-26T18:50:29.179Z,0.19
2023-02-26T18:55:29.156Z,0.10
2023-02-26T19:00:29.757Z,0.01
2023-02-26T19:05:29.006Z,0.00
2023-02-26T19:10:28.965Z,0.00
2023-02-26T19:15:28.959Z,-0.06
2023-02-26T19:20:28.926Z,-0.17
2023-02-26T19:25:28.768Z,-0.28
2023-02-26T19:30:28.744Z,-0.35
2023-02-26T19:35:28.611Z,-0.35
2023-02-26T19:40:28.570Z,-0.35
2023-02-26T19:45:28.514Z,-0.32
2023-02-26T19:50:28.443Z,-0.31
2023-02-26T19:55:28.348Z,-0.43
2023-02-26T20:00:28.344Z,-0.53
2023-02-26T20:05:28.230Z,-0.67
2023-02-26T20:10:28.234Z,-0.77
2023-02-26T20:15:28.132Z,-0.74
2023-02-26T20:20:28.123Z,-0.75
2023-02-26T20:25:28.009Z,-0.78
2023-02-26T20:30:27.938Z,-0.83
2023-02-26T20:35:27.849Z,-0.85
2023-02-26T20:40:27.776Z,-0.90
2023-02-26T20:45:27.713Z,-0.91
2023-02-26T20:50:27.665Z,-0.94
2023-02-26T20:55:27.582Z,-0.99
2023-02-26T21:00:27.645Z,-0.97
2023-02-26T21:05:27.468Z,-1.01
2023-02-26T21:10:27.408Z,-1.04
2023-02-26T21:15:27.351Z,-1.07
2023-02-26T21:20:27.290Z,-1.04
2023-02-26T21:25:27.238Z,-1.09
2023-02-26T21:30:27.220Z,-1.08
2023-02-26T21:35:27.107Z,-1.05
2023-02-26T21:40:27.050Z,-1.12
2023-02-26T21:45:26.983Z,-1.22
2023-02-26T21:50:26.957Z,-1.25
2023-02-26T21:55:26.818Z,-1.29
2023-02-26T22:00:26.756Z,-1.32
2023-02-26T22:05:26.770Z,-1.32
2023-02-26T22:10:26.660Z,-1.26
2023-02-26T22:15:26.571Z,-1.30
2023-02-26T22:20:26.511Z,-1.30
2023-02-26T22:25:26.483Z,-1.22
2023-02-26T22:30:26.421Z,-1.22
2023-02-26T22:35:26.315Z,-1.11
2023-02-26T22:40:26.265Z,-1.11
2023-02-26T22:45:26.223Z,-1.01
2023-02-26T22:50:26.117Z,-1.05
2023-02-26T22:55:26.091Z,-1.14
2023-02-26T23:00:26.013Z,-1.25
2023-02-26T23:05:25.964Z,-1.20
2023-02-26T23:10:25.942Z,-1.20
2023-02-26T23:15:26.021Z,-1.20
2023-02-26T23:20:25.764Z,-1.14
2023-02-26T23:25:25.701Z,-1.17
2023-02-26T23:30:25.628Z,-1.22
2023-02-26T23:35:25.567Z,-1.09
2023-02-26T23:40:26.173Z,-0.93
2023-02-26T23:45:25.446Z,-0.72
2023-02-26T23:50:25.376Z,-0.67
2023-02-26T23:55:25.301Z,-0.61
